createdAt,value
2022-08-17T00:00:34.570Z,99960.75
2022-08-17T00:03:38.181Z,99886.34
2022-08-17T00:06:12.256Z,99947.13
2022-08-17T00:08:47.891Z,99887.91
2022-08-17T00:11:28.836Z,99934.16
2022-08-17T00:14:02.314Z,99903.59
2022-08-17T00:16:56.253Z,99882.47
2022-08-17T00:19:26.530Z,99968.03
2022-08-17T00:22:33.123Z,99955.81
2022-08-17T00:24:46.083Z,99966.56
2022-08-17T00:27:13.647Z,99935.69
2022-08-17T00:29:41.402Z,99882.38
2022-08-17T00:33:14.624Z,99878.00
2022-08-17T00:34:56.561Z,99934.63
2022-08-17T00:37:24.308Z,99894.50
2022-08-17T00:39:51.741Z,99966.03
2022-08-17T00:42:19.768Z,99898.66
2022-08-17T00:44:47.796Z,99877.88
2022-08-17T00:47:15.437Z,99975.81
2022-08-17T00:49:42.901Z,99862.38
2022-08-17T00:52:17.224Z,99891.56
2022-08-17T00:54:49.313Z,99952.00
2022-08-17T00:57:23.749Z,99942.13
2022-08-17T01:00:01.926Z,99877.06
2022-08-17T01:02:42.686Z,99939.06
2022-08-17T01:05:23.901Z,99938.44
2022-08-17T01:07:54.261Z,99935.25
2022-08-17T01:11:00.145Z,99881.81
2022-08-17T01:13:18.061Z,99947.25
2022-08-17T01:16:03.313Z,99952.72
2022-08-17T01:18:32.443Z,99940.03
2022-08-17T01:21:05.394Z,99942.72
2022-08-17T01:23:33.183Z,99940.88
2022-08-17T01:26:02.385Z,99865.44
2022-08-17T01:28:53.246Z,99937.47
2022-08-17T01:31:20.965Z,99948.22
2022-08-17T01:33:48.578Z,99853.25
2022-08-17T01:36:15.917Z,99951.88
2022-08-17T01:38:44.081Z,99938.34
2022-08-17T01:41:15.806Z,99929.19
2022-08-17T01:43:57.153Z,99951.53
2022-08-17T01:46:31.135Z,99935.53
2022-08-17T01:49:01.113Z,99946.03
2022-08-17T01:51:33.073Z,99847.00
2022-08-17T01:54:07.285Z,99941.91
2022-08-17T01:56:37.272Z,99927.13
2022-08-17T01:59:05.279Z,99942.00
2022-08-17T02:01:34.920Z,99929.91
2022-08-17T02:04:03.277Z,99832.75
2022-08-17T02:06:52.558Z,99933.09
2022-08-17T02:09:25.821Z,99930.66
2022-08-17T02:11:59.082Z,99926.50
2022-08-17T02:14:26.972Z,99846.53
2022-08-17T02:16:54.678Z,99837.00
2022-08-17T02:19:22.948Z,99930.16
2022-08-17T02:21:53.079Z,99932.13
2022-08-17T02:25:00.952Z,99902.09
2022-08-17T02:27:19.713Z,99856.03
2022-08-17T02:29:47.646Z,99932.13
2022-08-17T02:32:27.372Z,99793.69
2022-08-17T02:34:55.717Z,99940.06
2022-08-17T02:37:23.234Z,99944.59
2022-08-17T02:39:50.590Z,99930.88
2022-08-17T02:42:18.770Z,99913.78
2022-08-17T02:44:46.022Z,99778.19
2022-08-17T02:47:13.454Z,99880.81
2022-08-17T02:49:46.293Z,99852.38
2022-08-17T02:52:43.714Z,99940.94
2022-08-17T02:55:23.297Z,99925.66
2022-08-17T02:57:52.078Z,99937.09
2022-08-17T03:00:22.680Z,99926.34
2022-08-17T03:02:52.215Z,99928.13
2022-08-17T03:05:22.179Z,99952.44
2022-08-17T03:07:50.099Z,99917.19
2022-08-17T03:10:18.324Z,99936.59
2022-08-17T03:12:46.671Z,99949.94
2022-08-17T03:15:17.819Z,99923.00
2022-08-17T03:17:45.838Z,99938.69
2022-08-17T03:20:14.022Z,99930.81
2022-08-17T03:22:53.094Z,99926.72
2022-08-17T03:25:27.430Z,99939.84
2022-08-17T03:27:56.940Z,99937.47
2022-08-17T03:30:26.105Z,99939.34
2022-08-17T03:32:56.309Z,99926.06
2022-08-17T03:35:27.143Z,99935.69
2022-08-17T03:38:00.010Z,99936.91
2022-08-17T03:40:58.108Z,99938.56
2022-08-17T03:43:18.504Z,99936.75
2022-08-17T03:46:04.486Z,99934.31
2022-08-17T03:48:52.033Z,99950.56
2022-08-17T03:51:40.687Z,99948.59
2022-08-17T03:54:27.712Z,99949.75
2022-08-17T03:57:04.757Z,99956.63
2022-08-17T03:59:33.681Z,99952.34
2022-08-17T04:02:05.179Z,99950.28
2022-08-17T04:04:33.393Z,99948.75
2022-08-17T04:07:01.069Z,99942.88
2022-08-17T04:09:28.595Z,99945.34
2022-08-17T04:11:57.433Z,99944.75
2022-08-17T04:14:33.921Z,99949.00
2022-08-17T04:17:01.309Z,99947.50
2022-08-17T04:19:28.656Z,99944.69
2022-08-17T04:21:58.145Z,99935.19
2022-08-17T04:24:26.550Z,99948.41
2022-08-17T04:26:54.757Z,99943.34
2022-08-17T04:29:22.543Z,99936.63
2022-08-17T04:31:49.739Z,99944.97
2022-08-17T04:34:19.861Z,99947.28
2022-08-17T04:36:50.229Z,99951.59
2022-08-17T04:39:17.902Z,99955.06
2022-08-17T04:42:03.854Z,99951.44
2022-08-17T04:44:37.703Z,99946.75
2022-08-17T04:47:07.404Z,99948.44
2022-08-17T04:49:38.154Z,99939.13
2022-08-17T04:52:05.369Z,99941.50
2022-08-17T04:54:32.972Z,99890.88
2022-08-17T04:57:00.568Z,99935.84
2022-08-17T04:59:27.858Z,99944.00
2022-08-17T05:01:55.342Z,99855.03
2022-08-17T05:04:34.299Z,99950.66
2022-08-17T05:07:04.352Z,99937.34
2022-08-17T05:09:32.326Z,99892.59
2022-08-17T05:12:03.478Z,99948.13
2022-08-17T05:14:33.377Z,99928.22
2022-08-17T05:17:07.208Z,99940.59
2022-08-17T05:19:38.751Z,99907.09
2022-08-17T05:22:06.622Z,99936.06
2022-08-17T05:24:38.722Z,99935.41
2022-08-17T05:27:10.756Z,99931.56
2022-08-17T05:29:46.360Z,99925.72
2022-08-17T05:32:47.896Z,99927.75
2022-08-17T05:35:02.248Z,99894.94
2022-08-17T05:37:30.126Z,99932.19
2022-08-17T05:40:00.136Z,99863.66
2022-08-17T05:42:27.643Z,99936.06
2022-08-17T05:44:58.282Z,99777.97
2022-08-17T05:47:27.350Z,99832.84
2022-08-17T05:49:55.247Z,99919.88
2022-08-17T05:52:29.840Z,99928.31
2022-08-17T05:54:57.296Z,99922.75
2022-08-17T05:57:33.186Z,99880.41
2022-08-17T06:00:07.699Z,99927.78
2022-08-17T06:03:19.305Z,99929.63
2022-08-17T06:05:58.697Z,99920.78
2022-08-17T06:08:51.941Z,99925.59
2022-08-17T06:11:31.587Z,99915.72
2022-08-17T06:14:34.728Z,99921.25
2022-08-17T06:17:09.750Z,99906.34
2022-08-17T06:19:37.625Z,99924.44
2022-08-17T06:22:06.649Z,99807.03
2022-08-17T06:24:43.367Z,99924.19
2022-08-17T06:27:22.113Z,99937.31
2022-08-17T06:30:01.413Z,99927.25
2022-08-17T06:32:31.451Z,99895.09
2022-08-17T06:35:00.669Z,99920.94
2022-08-17T06:37:28.094Z,99929.97
2022-08-17T06:40:28.368Z,99926.16
2022-08-17T06:43:13.163Z,99926.69
2022-08-17T06:45:50.529Z,99916.53
2022-08-17T06:48:25.157Z,99863.66
2022-08-17T06:50:55.082Z,99922.34
2022-08-17T06:53:35.969Z,99910.69
2022-08-17T06:56:12.246Z,99914.84
2022-08-17T06:58:43.777Z,99911.06
2022-08-17T07:01:16.620Z,99918.88
2022-08-17T07:03:54.934Z,99914.66
2022-08-17T07:06:30.074Z,99916.84
2022-08-17T07:09:19.604Z,99911.50
2022-08-17T07:11:58.714Z,99908.91
2022-08-17T07:14:37.027Z,99909.75
2022-08-17T07:17:11.308Z,99908.94
2022-08-17T07:19:45.968Z,99852.38
2022-08-17T07:22:57.722Z,99903.81
2022-08-17T07:25:30.882Z,99915.78
2022-08-17T07:28:02.565Z,99884.56
2022-08-17T07:30:51.797Z,99890.91
2022-08-17T07:33:26.134Z,99890.44
2022-08-17T07:35:54.447Z,99836.56
2022-08-17T07:38:30.785Z,99884.03
2022-08-17T07:41:01.660Z,99893.50
2022-08-17T07:43:41.253Z,99885.44
2022-08-17T07:46:30.585Z,99813.66
2022-08-17T07:49:19.802Z,99876.53
2022-08-17T07:51:47.555Z,99881.78
2022-08-17T07:54:21.706Z,99881.00
2022-08-17T07:56:56.940Z,99878.38
2022-08-17T07:59:36.043Z,99859.78
2022-08-17T08:02:21.552Z,99885.06
2022-08-17T08:05:48.577Z,99790.19
2022-08-17T08:08:27.418Z,99887.13
2022-08-17T08:11:10.967Z,99880.69
2022-08-17T08:13:44.144Z,99882.41
2022-08-17T08:16:17.434Z,99880.50
2022-08-17T08:18:54.277Z,99882.03
2022-08-17T08:21:29.517Z,99863.75
2022-08-17T08:24:24.632Z,99816.63
2022-08-17T08:27:08.235Z,99707.69
2022-08-17T08:30:05.201Z,99867.63
2022-08-17T08:32:48.237Z,99774.56
2022-08-17T08:35:23.624Z,99855.72
2022-08-17T08:38:08.710Z,99842.84
2022-08-17T08:41:33.515Z,99833.00
2022-08-17T08:45:00.177Z,99769.63
2022-08-17T08:47:45.410Z,99837.25
2022-08-17T08:50:38.171Z,99836.03
2022-08-17T08:53:28.269Z,99842.19
2022-08-17T08:55:58.799Z,99840.84
2022-08-17T08:59:04.447Z,99837.28
2022-08-17T09:01:48.133Z,99759.56
2022-08-17T09:05:13.393Z,99835.72
2022-08-17T09:07:47.543Z,99835.50
2022-08-17T09:10:30.385Z,99831.00
2022-08-17T09:12:57.917Z,99836.03
2022-08-17T09:15:32.423Z,99827.28
2022-08-17T09:19:01.516Z,99649.72
2022-08-17T09:21:06.306Z,99818.03
2022-08-17T09:23:42.667Z,99832.16
2022-08-17T09:26:23.119Z,99800.41
2022-08-17T09:29:01.800Z,99822.84
2022-08-17T09:31:46.494Z,99818.94
2022-08-17T09:34:32.102Z,99815.13
2022-08-17T09:37:39.416Z,99822.09
2022-08-17T09:40:09.845Z,99815.53
2022-08-17T09:42:52.779Z,99807.50
2022-08-17T09:46:02.400Z,99818.41
2022-08-17T09:48:46.029Z,99799.03
2022-08-17T09:51:18.298Z,99792.59
2022-08-17T09:53:46.077Z,99638.16
2022-08-17T09:56:19.212Z,99818.44
2022-08-17T09:58:56.609Z,99810.63
2022-08-17T10:01:43.735Z,99804.25
2022-08-17T10:04:39.622Z,99698.56
2022-08-17T10:07:20.124Z,99816.47
2022-08-17T10:09:59.499Z,99804.06
2022-08-17T10:12:38.845Z,99802.28
2022-08-17T10:15:25.250Z,99800.34
2022-08-17T10:18:10.983Z,99805.41
2022-08-17T10:20:44.114Z,99800.53
2022-08-17T10:23:47.389Z,99810.38
2022-08-17T10:26:25.098Z,99802.31
2022-08-17T10:29:17.150Z,99759.84
2022-08-17T10:31:50.349Z,99791.53
2022-08-17T10:34:46.659Z,99787.38
2022-08-17T10:37:20.196Z,99794.13
2022-08-17T10:40:09.871Z,99789.97
2022-08-17T10:42:53.957Z,99789.31
2022-08-17T10:46:09.433Z,99789.19
2022-08-17T10:48:40.738Z,99792.16
2022-08-17T10:51:12.856Z,99786.63
2022-08-17T10:53:49.787Z,99782.59
2022-08-17T10:56:22.915Z,99769.66
2022-08-17T10:59:01.169Z,99769.34
2022-08-17T11:01:38.298Z,99777.47
2022-08-17T11:04:18.276Z,99777.94
2022-08-17T11:07:02.819Z,99771.69
2022-08-17T11:10:05.476Z,99776.69
2022-08-17T11:13:03.420Z,99766.63
2022-08-17T11:15:58.725Z,99772.34
2022-08-17T11:18:52.879Z,99770.84
2022-08-17T11:21:37.766Z,99761.28
2022-08-17T11:24:14.462Z,99775.91
2022-08-17T11:27:01.298Z,99749.31
2022-08-17T11:29:36.975Z,99760.75
2022-08-17T11:32:28.049Z,99758.34
2022-08-17T11:35:39.239Z,99758.63
2022-08-17T11:38:16.880Z,99645.88
2022-08-17T11:41:22.018Z,99754.78
2022-08-17T11:44:03.116Z,99758.78
2022-08-17T11:47:14.357Z,99757.94
2022-08-17T11:50:16.786Z,99752.41
2022-08-17T11:52:50.096Z,99743.47
2022-08-17T11:55:35.662Z,99744.63
2022-08-17T11:58:26.353Z,99727.06
2022-08-17T12:01:06.148Z,99736.91
2022-08-17T12:03:34.368Z,99742.75
2022-08-17T12:06:40.162Z,99734.38
2022-08-17T12:09:21.493Z,99720.59
2022-08-17T12:12:14.614Z,99736.09
2022-08-17T12:17:52.057Z,99731.00
2022-08-17T12:20:32.631Z,99661.19
2022-08-17T12:23:31.024Z,99728.88
2022-08-17T12:26:12.000Z,99734.56
2022-08-17T12:28:45.678Z,99699.66
2022-08-17T12:31:37.646Z,99729.03
2022-08-17T12:34:05.687Z,99726.50
2022-08-17T12:36:34.189Z,99632.19
2022-08-17T12:39:14.330Z,99700.06
2022-08-17T12:41:51.542Z,99709.09
2022-08-17T12:44:29.893Z,99699.06
2022-08-17T12:47:21.932Z,99718.22
2022-08-17T12:49:53.192Z,99688.88
2022-08-17T12:52:25.453Z,99714.09
2022-08-17T12:54:56.338Z,99730.28
2022-08-17T12:57:45.909Z,99718.72
2022-08-17T13:00:22.586Z,99563.75
2022-08-17T13:03:00.703Z,99711.50
2022-08-17T13:05:41.467Z,99686.63
2022-08-17T13:08:18.507Z,99736.84
2022-08-17T13:10:57.535Z,99716.13
2022-08-17T13:13:31.334Z,99693.03
2022-08-17T13:16:03.309Z,99713.13
2022-08-17T13:18:39.274Z,99715.03
2022-08-17T13:21:33.613Z,99707.78
2022-08-17T13:24:19.418Z,99710.91
2022-08-17T13:26:57.562Z,99722.22
2022-08-17T13:29:33.627Z,99702.53
2022-08-17T13:32:10.707Z,99715.25
2022-08-17T13:34:56.163Z,99654.63
2022-08-17T13:37:36.919Z,99716.34
2022-08-17T13:40:10.757Z,99711.38
2022-08-17T13:42:52.846Z,99698.41
2022-08-17T13:45:35.638Z,99710.16
2022-08-17T13:48:11.163Z,99705.56
2022-08-17T13:50:47.185Z,99599.38
2022-08-17T13:53:18.614Z,99713.44
2022-08-17T13:55:53.382Z,99708.84
2022-08-17T13:58:28.885Z,99665.69
2022-08-17T14:00:57.051Z,99711.31
2022-08-17T14:03:25.125Z,99686.84
2022-08-17T14:05:53.706Z,99620.31
2022-08-17T14:08:21.478Z,99695.69
2022-08-17T14:10:58.703Z,99700.09
2022-08-17T14:13:26.400Z,99694.53
2022-08-17T14:15:56.563Z,99694.53
2022-08-17T14:18:55.426Z,99638.94
2022-08-17T14:21:13.278Z,99696.25
2022-08-17T14:23:41.360Z,99681.22
2022-08-17T14:26:16.536Z,99703.41
2022-08-17T14:28:53.591Z,99691.06
2022-08-17T14:31:24.102Z,99680.53
2022-08-17T14:33:52.385Z,99687.13
2022-08-17T14:36:19.797Z,99610.88
2022-08-17T14:38:47.398Z,99667.84
2022-08-17T14:41:20.065Z,99699.25
2022-08-17T14:43:50.971Z,99701.34
2022-08-17T14:46:18.702Z,99621.75
2022-08-17T14:48:46.832Z,99627.97
2022-08-17T14:51:14.767Z,99688.53
2022-08-17T14:53:43.471Z,99691.53
2022-08-17T14:56:10.973Z,99638.69
2022-08-17T14:58:39.146Z,99617.72
2022-08-17T15:01:20.281Z,99689.34
2022-08-17T15:03:47.890Z,99672.13
2022-08-17T15:06:16.501Z,99582.25
2022-08-17T15:08:44.524Z,99677.56
2022-08-17T15:11:14.551Z,99692.31
2022-08-17T15:13:52.926Z,99679.34
2022-08-17T15:16:20.933Z,99537.28
2022-08-17T15:18:49.235Z,99607.03
2022-08-17T15:21:16.767Z,99682.31
2022-08-17T15:23:44.359Z,99694.38
2022-08-17T15:26:12.146Z,99686.75
2022-08-17T15:28:39.431Z,99690.31
2022-08-17T15:31:07.054Z,99633.13
2022-08-17T15:33:34.439Z,99681.38
2022-08-17T15:36:04.904Z,99666.78
2022-08-17T15:38:39.869Z,99666.34
2022-08-17T15:41:15.597Z,99691.66
2022-08-17T15:43:43.967Z,99598.50
2022-08-17T15:46:17.654Z,99691.19
2022-08-17T15:48:51.181Z,99694.66
2022-08-17T15:51:33.592Z,99681.59
2022-08-17T15:54:19.172Z,99684.19
2022-08-17T15:56:51.179Z,99603.63
2022-08-17T15:59:19.823Z,99611.47
2022-08-17T16:03:01.563Z,99707.56
2022-08-17T16:04:35.343Z,99681.63
2022-08-17T16:07:05.880Z,99642.88
2022-08-17T16:09:33.533Z,99698.97
2022-08-17T16:12:13.502Z,99673.22
2022-08-17T16:14:40.963Z,99692.56
2022-08-17T16:17:15.587Z,99508.47
2022-08-17T16:19:57.800Z,99698.88
2022-08-17T16:22:33.125Z,99695.00
2022-08-17T16:25:05.075Z,99649.97
2022-08-17T16:27:33.181Z,99694.72
2022-08-17T16:30:01.213Z,99689.66
2022-08-17T16:32:31.922Z,99701.84
2022-08-17T16:35:11.239Z,99698.81
2022-08-17T16:37:41.795Z,99706.13
2022-08-17T16:40:15.732Z,99653.06
2022-08-17T16:42:48.852Z,99615.94
2022-08-17T16:45:28.611Z,99703.94
2022-08-17T16:48:01.805Z,99568.00
2022-08-17T16:50:29.255Z,99687.00
2022-08-17T16:53:08.301Z,99610.75
2022-08-17T16:55:35.912Z,99672.09
2022-08-17T16:58:05.150Z,99700.91
2022-08-17T17:00:34.080Z,99688.06
2022-08-17T17:03:19.940Z,99708.44
2022-08-17T17:06:25.320Z,99712.84
2022-08-17T17:09:01.149Z,99670.28
2022-08-17T17:11:51.396Z,99711.47
2022-08-17T17:14:32.144Z,99712.34
2022-08-17T17:17:21.323Z,99667.84
2022-08-17T17:20:13.442Z,99714.22
2022-08-17T17:22:50.536Z,99714.56
2022-08-17T17:25:17.938Z,99716.91
2022-08-17T17:28:25.324Z,99716.75
2022-08-17T17:31:14.172Z,99719.25
2022-08-17T17:33:49.469Z,99717.06
2022-08-17T17:36:30.007Z,99696.69
2022-08-17T17:39:06.871Z,99706.53
2022-08-17T17:41:49.331Z,99709.09
2022-08-17T17:44:23.348Z,99701.94
2022-08-17T17:46:58.112Z,99707.19
2022-08-17T17:49:30.084Z,99677.50
2022-08-17T17:52:13.384Z,99686.16
2022-08-17T17:55:08.534Z,99687.66
2022-08-17T17:57:54.730Z,99690.22
2022-08-17T18:00:24.733Z,99697.81
2022-08-17T18:03:01.079Z,99688.31
2022-08-17T18:05:37.658Z,99691.38
2022-08-17T18:08:32.362Z,99575.94
2022-08-17T18:11:04.695Z,99687.00
2022-08-17T18:14:02.749Z,99690.41
2022-08-17T18:16:33.297Z,99525.69
2022-08-17T18:19:01.344Z,99679.56
2022-08-17T18:21:44.395Z,99639.38
2022-08-17T18:24:13.006Z,99681.81
2022-08-17T18:26:42.083Z,99684.50
2022-08-17T18:29:36.194Z,99678.03
2022-08-17T18:32:16.334Z,99683.66
2022-08-17T18:34:48.009Z,99660.31
2022-08-17T18:37:45.448Z,99685.78
2022-08-17T18:40:22.048Z,99688.72
2022-08-17T18:43:03.215Z,99684.84
2022-08-17T18:45:56.193Z,99687.66
2022-08-17T18:48:33.887Z,99682.38
2022-08-17T18:51:21.462Z,99683.09
2022-08-17T18:54:24.472Z,99686.03
2022-08-17T18:57:28.189Z,99682.78
2022-08-17T18:59:56.094Z,99675.16
2022-08-17T19:02:43.321Z,99674.38
2022-08-17T19:05:25.685Z,99677.75
2022-08-17T19:07:53.440Z,99653.81
2022-08-17T19:10:46.544Z,99681.47
2022-08-17T19:13:24.174Z,99588.41
2022-08-17T19:16:11.752Z,99690.25
2022-08-17T19:19:08.910Z,99683.75
2022-08-17T19:21:49.514Z,99685.13
2022-08-17T19:24:22.932Z,99688.16
2022-08-17T19:27:16.089Z,99683.59
2022-08-17T19:29:57.754Z,99676.47
2022-08-17T19:32:29.661Z,99614.97
2022-08-17T19:34:58.227Z,99682.53
2022-08-17T19:37:25.614Z,99690.81
2022-08-17T19:40:05.472Z,99686.38
2022-08-17T19:42:47.361Z,99634.88
2022-08-17T19:49:41.448Z,99684.44
2022-08-17T19:52:30.458Z,99681.50
2022-08-17T19:55:09.272Z,99684.69
2022-08-17T19:57:47.841Z,99638.94
2022-08-17T20:00:22.082Z,99654.84
2022-08-17T20:03:25.910Z,99686.03
2022-08-17T20:06:15.083Z,99533.31
2022-08-17T20:08:56.831Z,99690.63
2022-08-17T20:11:45.509Z,99685.34
2022-08-17T20:14:24.205Z,99692.63
2022-08-17T20:16:51.928Z,99698.88
2022-08-17T20:19:22.522Z,99696.50
2022-08-17T20:22:04.619Z,99695.13
2022-08-17T20:24:44.080Z,99610.19
2022-08-17T20:27:27.987Z,99700.44
2022-08-17T20:30:39.338Z,99699.97
2022-08-17T20:33:41.548Z,99704.72
2022-08-17T20:36:16.268Z,99703.88
2022-08-17T20:38:55.839Z,99693.53
2022-08-17T20:41:27.784Z,99713.53
2022-08-17T20:43:57.455Z,99713.53
2022-08-17T20:46:39.310Z,99711.41
2022-08-17T20:49:09.541Z,99706.63
2022-08-17T20:52:07.924Z,99713.63
2022-08-17T20:54:55.022Z,99711.94
2022-08-17T20:57:37.360Z,99719.22
2022-08-17T21:00:15.872Z,99729.31
2022-08-17T21:02:46.205Z,99644.56
2022-08-17T21:05:34.597Z,99668.38
2022-08-17T21:08:20.833Z,99703.03
2022-08-17T21:14:13.218Z,99688.00
2022-08-17T21:17:22.924Z,99574.63
2022-08-17T21:20:17.440Z,99718.41
2022-08-17T21:23:06.248Z,99719.53
2022-08-17T21:25:48.333Z,99720.53
2022-08-17T21:28:15.938Z,99725.94
2022-08-17T21:30:55.760Z,99637.69
2022-08-17T21:33:36.519Z,99704.97
2022-08-17T21:36:17.496Z,99723.56
2022-08-17T21:38:47.959Z,99721.28
2022-08-17T21:41:25.280Z,99727.06
2022-08-17T21:43:56.050Z,99722.69
2022-08-17T21:46:38.007Z,99716.56
2022-08-17T21:49:13.875Z,99619.16
2022-08-17T21:51:55.603Z,99710.50
2022-08-17T21:54:49.622Z,99729.50
2022-08-17T21:57:22.750Z,99627.19
2022-08-17T22:00:00.694Z,99722.16
2022-08-17T22:02:41.988Z,99570.59
2022-08-17T22:05:13.350Z,99699.16
2022-08-17T22:07:47.241Z,99660.38
2022-08-17T22:10:32.039Z,99733.50
2022-08-17T22:13:19.881Z,99639.50
2022-08-17T22:16:15.653Z,99735.44
2022-08-17T22:18:58.435Z,99734.00
2022-08-17T22:21:26.684Z,99567.22
2022-08-17T22:24:14.527Z,99729.56
2022-08-17T22:27:02.288Z,99731.97
2022-08-17T22:29:47.036Z,99737.66
2022-08-17T22:32:36.424Z,99728.41
2022-08-17T22:35:19.533Z,99738.47
2022-08-17T22:37:47.534Z,99730.22
2022-08-17T22:40:30.599Z,99727.25
2022-08-17T22:43:00.926Z,99729.38
2022-08-17T22:45:30.624Z,99721.41
2022-08-17T22:48:02.525Z,99713.28
2022-08-17T22:50:33.158Z,99730.44
2022-08-17T22:53:22.414Z,99734.41
2022-08-17T22:56:12.547Z,99741.63
2022-08-17T22:59:08.033Z,99746.72
2022-08-17T23:01:35.759Z,99708.34
2022-08-17T23:04:12.418Z,99747.94
2022-08-17T23:06:44.420Z,99565.19
2022-08-17T23:09:11.978Z,99707.41
2022-08-17T23:11:49.786Z,99650.00
2022-08-17T23:14:19.964Z,99741.81
2022-08-17T23:16:50.475Z,99667.31
2022-08-17T23:19:20.405Z,99743.06
2022-08-17T23:21:50.632Z,99732.84
2022-08-17T23:24:26.168Z,99700.38
2022-08-17T23:26:57.248Z,99741.88
2022-08-17T23:29:26.171Z,99738.41
2022-08-17T23:31:54.082Z,99588.22
2022-08-17T23:34:21.633Z,99735.81
2022-08-17T23:36:52.643Z,99740.75
2022-08-17T23:39:28.026Z,99662.19
2022-08-17T23:41:58.370Z,99609.22
2022-08-17T23:44:27.163Z,99742.66
2022-08-17T23:46:55.137Z,99539.56
2022-08-17T23:49:23.626Z,99650.53
2022-08-17T23:51:55.371Z,99748.00
2022-08-17T23:54:33.679Z,99753.25
2022-08-17T23:57:02.904Z,99715.97
2022-08-17T23:59:31.566Z,99600.28
